sensor_id;sensor_type;location;lat;lon;timestamp;P1;durP1;ratioP1;P2;durP2;ratioP2
21432;SDS011;18592;49.708;10.900;2022-07-09T00:01:20;1.17;;;0.85;;
21432;SDS011;18592;49.708;10.900;2022-07-09T00:03:22;2.22;;;0.98;;
21432;SDS011;18592;49.708;10.900;2022-07-09T00:05:24;1.88;;;1.15;;
21432;SDS011;18592;49.708;10.900;2022-07-09T00:07:26;2.83;;;1.23;;
21432;SDS011;18592;49.708;10.900;2022-07-09T00:09:28;2.10;;;0.90;;
21432;SDS011;18592;49.708;10.900;2022-07-09T00:11:30;2.38;;;1.30;;
21432;SDS011;18592;49.708;10.900;2022-07-09T00:13:32;2.45;;;1.17;;
21432;SDS011;18592;49.708;10.900;2022-07-09T00:15:33;2.13;;;1.17;;
21432;SDS011;18592;49.708;10.900;2022-07-09T00:17:35;2.63;;;1.35;;
21432;SDS011;18592;49.708;10.900;2022-07-09T00:19:37;2.75;;;1.10;;
21432;SDS011;18592;49.708;10.900;2022-07-09T00:21:38;1.70;;;1.13;;
21432;SDS011;18592;49.708;10.900;2022-07-09T00:23:40;2.40;;;1.30;;
21432;SDS011;18592;49.708;10.900;2022-07-09T00:25:41;2.65;;;1.25;;
21432;SDS011;18592;49.708;10.900;2022-07-09T00:27:43;2.85;;;1.42;;
21432;SDS011;18592;49.708;10.900;2022-07-09T00:29:45;2.25;;;1.27;;
21432;SDS011;18592;49.708;10.900;2022-07-09T00:31:46;1.50;;;1.20;;
21432;SDS011;18592;49.708;10.900;2022-07-09T00:33:48;2.28;;;1.20;;
21432;SDS011;18592;49.708;10.900;2022-07-09T00:35:50;4.35;;;1.25;;
21432;SDS011;18592;49.708;10.900;2022-07-09T00:37:54;2.38;;;1.10;;
21432;SDS011;18592;49.708;10.900;2022-07-09T00:39:55;1.25;;;1.02;;
21432;SDS011;18592;49.708;10.900;2022-07-09T00:42:04;1.58;;;1.02;;
21432;SDS011;18592;49.708;10.900;2022-07-09T00:44:09;2.17;;;1.20;;
21432;SDS011;18592;49.708;10.900;2022-07-09T00:46:11;2.53;;;1.05;;
21432;SDS011;18592;49.708;10.900;2022-07-09T00:48:13;4.03;;;1.30;;
21432;SDS011;18592;49.708;10.900;2022-07-09T00:50:16;1.45;;;0.90;;
21432;SDS011;18592;49.708;10.900;2022-07-09T00:52:18;2.35;;;1.25;;
21432;SDS011;18592;49.708;10.900;2022-07-09T00:54:20;2.38;;;1.10;;
21432;SDS011;18592;49.708;10.900;2022-07-09T00:56:23;2.70;;;1.33;;
21432;SDS011;18592;49.708;10.900;2022-07-09T00:58:25;2.35;;;1.30;;
21432;SDS011;18592;49.708;10.900;2022-07-09T01:00:26;1.73;;;1.13;;
21432;SDS011;18592;49.708;10.900;2022-07-09T01:02:28;2.40;;;1.30;;
21432;SDS011;18592;49.708;10.900;2022-07-09T01:04:30;1.30;;;1.20;;
21432;SDS011;18592;49.708;10.900;2022-07-09T01:06:32;2.58;;;1.30;;
21432;SDS011;18592;49.708;10.900;2022-07-09T01:08:35;2.08;;;1.35;;
21432;SDS011;18592;49.708;10.900;2022-07-09T01:10:37;3.13;;;1.30;;
21432;SDS011;18592;49.708;10.900;2022-07-09T01:12:40;1.83;;;1.30;;
21432;SDS011;18592;49.708;10.900;2022-07-09T01:14:41;1.30;;;1.00;;
21432;SDS011;18592;49.708;10.900;2022-07-09T01:16:43;2.13;;;1.10;;
21432;SDS011;18592;49.708;10.900;2022-07-09T01:18:46;2.38;;;1.13;;
21432;SDS011;18592;49.708;10.900;2022-07-09T01:20:48;2.95;;;1.02;;
21432;SDS011;18592;49.708;10.900;2022-07-09T01:22:50;2.03;;;1.08;;
21432;SDS011;18592;49.708;10.900;2022-07-09T01:24:52;4.30;;;1.35;;
21432;SDS011;18592;49.708;10.900;2022-07-09T01:26:56;1.40;;;1.20;;
21432;SDS011;18592;49.708;10.900;2022-07-09T01:28:58;3.13;;;1.10;;
21432;SDS011;18592;49.708;10.900;2022-07-09T01:30:59;1.75;;;1.10;;
21432;SDS011;18592;49.708;10.900;2022-07-09T01:33:01;1.95;;;1.20;;
21432;SDS011;18592;49.708;10.900;2022-07-09T01:35:03;2.08;;;1.20;;
21432;SDS011;18592;49.708;10.900;2022-07-09T01:37:06;1.85;;;1.10;;
21432;SDS011;18592;49.708;10.900;2022-07-09T01:39:07;1.40;;;1.10;;
21432;SDS011;18592;49.708;10.900;2022-07-09T01:41:09;1.13;;;0.93;;
21432;SDS011;18592;49.708;10.900;2022-07-09T01:43:11;1.65;;;0.98;;
21432;SDS011;18592;49.708;10.900;2022-07-09T01:45:14;2.67;;;1.17;;
21432;SDS011;18592;49.708;10.900;2022-07-09T01:47:17;4.75;;;1.20;;
21432;SDS011;18592;49.708;10.900;2022-07-09T01:49:18;2.58;;;1.17;;
21432;SDS011;18592;49.708;10.900;2022-07-09T01:51:20;1.85;;;1.20;;
21432;SDS011;18592;49.708;10.900;2022-07-09T01:53:23;2.17;;;1.02;;
21432;SDS011;18592;49.708;10.900;2022-07-09T01:55:25;5.03;;;1.40;;
21432;SDS011;18592;49.708;10.900;2022-07-09T01:57:27;1.58;;;1.02;;
21432;SDS011;18592;49.708;10.900;2022-07-09T01:59:28;1.27;;;1.00;;
21432;SDS011;18592;49.708;10.900;2022-07-09T02:01:30;1.58;;;1.00;;
21432;SDS011;18592;49.708;10.900;2022-07-09T02:03:32;2.78;;;1.20;;
21432;SDS011;18592;49.708;10.900;2022-07-09T02:05:33;1.73;;;0.88;;
21432;SDS011;18592;49.708;10.900;2022-07-09T02:07:35;2.67;;;1.10;;
21432;SDS011;18592;49.708;10.900;2022-07-09T02:09:37;2.13;;;1.25;;
21432;SDS011;18592;49.708;10.900;2022-07-09T02:11:39;2.92;;;1.20;;
21432;SDS011;18592;49.708;10.900;2022-07-09T02:13:41;1.63;;;1.33;;
21432;SDS011;18592;49.708;10.900;2022-07-09T02:15:43;2.15;;;1.30;;
21432;SDS011;18592;49.708;10.900;2022-07-09T02:17:45;1.15;;;1.05;;
21432;SDS011;18592;49.708;10.900;2022-07-09T02:19:46;1.45;;;1.05;;
21432;SDS011;18592;49.708;10.900;2022-07-09T02:21:48;2.28;;;1.20;;
21432;SDS011;18592;49.708;10.900;2022-07-09T02:23:50;2.88;;;1.55;;
21432;SDS011;18592;49.708;10.900;2022-07-09T02:25:52;1.48;;;1.30;;
21432;SDS011;18592;49.708;10.900;2022-07-09T02:27:53;1.48;;;1.20;;
21432;SDS011;18592;49.708;10.900;2022-07-09T02:29:55;1.98;;;1.30;;
21432;SDS011;18592;49.708;10.900;2022-07-09T02:31:57;2.28;;;1.45;;
21432;SDS011;18592;49.708;10.900;2022-07-09T02:33:58;2.47;;;1.25;;
21432;SDS011;18592;49.708;10.900;2022-07-09T02:36:00;1.65;;;1.20;;
21432;SDS011;18592;49.708;10.900;2022-07-09T02:38:02;2.95;;;1.33;;
21432;SDS011;18592;49.708;10.900;2022-07-09T02:40:04;1.20;;;1.10;;
21432;SDS011;18592;49.708;10.900;2022-07-09T02:42:07;2.50;;;1.27;;
21432;SDS011;18592;49.708;10.900;2022-07-09T02:44:08;1.38;;;1.02;;
21432;SDS011;18592;49.708;10.900;2022-07-09T02:46:10;1.45;;;1.08;;
21432;SDS011;18592;49.708;10.900;2022-07-09T02:48:12;2.00;;;1.20;;
21432;SDS011;18592;49.708;10.900;2022-07-09T02:50:14;3.65;;;1.30;;
21432;SDS011;18592;49.708;10.900;2022-07-09T02:52:15;1.85;;;1.20;;
21432;SDS011;18592;49.708;10.900;2022-07-09T02:54:17;2.72;;;1.20;;
21432;SDS011;18592;49.708;10.900;2022-07-09T02:56:19;2.83;;;1.40;;
21432;SDS011;18592;49.708;10.900;2022-07-09T02:58:20;1.70;;;1.25;;
21432;SDS011;18592;49.708;10.900;2022-07-09T03:00:22;2.35;;;1.38;;
21432;SDS011;18592;49.708;10.900;2022-07-09T03:02:24;2.15;;;1.20;;
21432;SDS011;18592;49.708;10.900;2022-07-09T03:04:29;3.10;;;1.20;;
21432;SDS011;18592;49.708;10.900;2022-07-09T03:06:31;2.20;;;1.23;;
21432;SDS011;18592;49.708;10.900;2022-07-09T03:08:32;2.03;;;1.17;;
21432;SDS011;18592;49.708;10.900;2022-07-09T03:10:35;1.98;;;1.30;;
21432;SDS011;18592;49.708;10.900;2022-07-09T03:12:37;2.90;;;1.33;;
21432;SDS011;18592;49.708;10.900;2022-07-09T03:14:38;1.60;;;1.17;;
21432;SDS011;18592;49.708;10.900;2022-07-09T03:16:40;2.35;;;1.50;;
21432;SDS011;18592;49.708;10.900;2022-07-09T03:18:42;2.15;;;1.38;;
21432;SDS011;18592;49.708;10.900;2022-07-09T03:20:43;2.22;;;1.35;;
21432;SDS011;18592;49.708;10.900;2022-07-09T03:22:45;2.17;;;1.42;;
21432;SDS011;18592;49.708;10.900;2022-07-09T03:24:47;1.70;;;1.20;;
21432;SDS011;18592;49.708;10.900;2022-07-09T03:26:49;2.88;;;1.40;;
21432;SDS011;18592;49.708;10.900;2022-07-09T03:28:51;3.47;;;1.30;;
21432;SDS011;18592;49.708;10.900;2022-07-09T03:30:52;1.70;;;1.20;;
21432;SDS011;18592;49.708;10.900;2022-07-09T03:32:54;2.47;;;1.50;;
21432;SDS011;18592;49.708;10.900;2022-07-09T03:34:56;1.92;;;1.30;;
21432;SDS011;18592;49.708;10.900;2022-07-09T03:36:58;1.92;;;1.25;;
21432;SDS011;18592;49.708;10.900;2022-07-09T03:39:00;1.67;;;1.30;;
21432;SDS011;18592;49.708;10.900;2022-07-09T03:41:01;1.95;;;1.30;;
21432;SDS011;18592;49.708;10.900;2022-07-09T03:43:03;1.63;;;1.23;;
21432;SDS011;18592;49.708;10.900;2022-07-09T03:45:05;1.95;;;1.10;;
21432;SDS011;18592;49.708;10.900;2022-07-09T03:47:07;1.98;;;1.15;;
21432;SDS011;18592;49.708;10.900;2022-07-09T03:49:09;2.10;;;1.55;;
21432;SDS011;18592;49.708;10.900;2022-07-09T03:51:11;2.65;;;1.38;;
21432;SDS011;18592;49.708;10.900;2022-07-09T03:53:13;3.10;;;1.30;;
21432;SDS011;18592;49.708;10.900;2022-07-09T03:55:15;1.75;;;1.35;;
21432;SDS011;18592;49.708;10.900;2022-07-09T03:57:17;1.70;;;1.30;;
21432;SDS011;18592;49.708;10.900;2022-07-09T03:59:19;3.67;;;1.50;;
21432;SDS011;18592;49.708;10.900;2022-07-09T04:01:21;2.22;;;1.40;;
21432;SDS011;18592;49.708;10.900;2022-07-09T04:03:22;2.15;;;1.73;;
21432;SDS011;18592;49.708;10.900;2022-07-09T04:05:24;2.00;;;1.52;;
21432;SDS011;18592;49.708;10.900;2022-07-09T04:07:26;1.88;;;1.45;;
21432;SDS011;18592;49.708;10.900;2022-07-09T04:09:27;2.22;;;1.50;;
21432;SDS011;18592;49.708;10.900;2022-07-09T04:11:31;1.73;;;1.30;;
21432;SDS011;18592;49.708;10.900;2022-07-09T04:13:33;2.22;;;1.58;;
21432;SDS011;18592;49.708;10.900;2022-07-09T04:15:34;2.10;;;1.30;;
21432;SDS011;18592;49.708;10.900;2022-07-09T04:17:36;3.70;;;2.15;;
21432;SDS011;18592;49.708;10.900;2022-07-09T04:19:38;4.30;;;1.67;;
21432;SDS011;18592;49.708;10.900;2022-07-09T04:21:40;3.47;;;1.58;;
21432;SDS011;18592;49.708;10.900;2022-07-09T04:23:42;2.83;;;1.70;;
21432;SDS011;18592;49.708;10.900;2022-07-09T04:25:44;3.92;;;1.23;;
21432;SDS011;18592;49.708;10.900;2022-07-09T04:27:47;3.10;;;1.63;;
21432;SDS011;18592;49.708;10.900;2022-07-09T04:29:48;1.65;;;1.25;;
21432;SDS011;18592;49.708;10.900;2022-07-09T04:31:50;1.65;;;1.35;;
21432;SDS011;18592;49.708;10.900;2022-07-09T04:33:52;2.40;;;1.55;;
21432;SDS011;18592;49.708;10.900;2022-07-09T04:35:53;3.28;;;1.70;;
21432;SDS011;18592;49.708;10.900;2022-07-09T04:37:55;2.80;;;1.52;;
21432;SDS011;18592;49.708;10.900;2022-07-09T04:39:57;2.60;;;1.50;;
21432;SDS011;18592;49.708;10.900;2022-07-09T04:41:59;2.05;;;1.65;;
21432;SDS011;18592;49.708;10.900;2022-07-09T04:44:00;3.60;;;1.50;;
21432;SDS011;18592;49.708;10.900;2022-07-09T04:46:02;2.40;;;1.48;;
21432;SDS011;18592;49.708;10.900;2022-07-09T04:48:05;2.13;;;1.50;;
21432;SDS011;18592;49.708;10.900;2022-07-09T04:50:07;2.47;;;1.50;;
21432;SDS011;18592;49.708;10.900;2022-07-09T04:52:09;2.25;;;1.40;;
21432;SDS011;18592;49.708;10.900;2022-07-09T04:54:11;2.63;;;1.70;;
21432;SDS011;18592;49.708;10.900;2022-07-09T04:56:13;2.90;;;1.70;;
21432;SDS011;18592;49.708;10.900;2022-07-09T04:58:15;2.63;;;1.80;;
21432;SDS011;18592;49.708;10.900;2022-07-09T05:00:17;2.58;;;1.67;;
21432;SDS011;18592;49.708;10.900;2022-07-09T05:02:21;3.70;;;1.83;;
21432;SDS011;18592;49.708;10.900;2022-07-09T05:04:23;2.28;;;1.40;;
21432;SDS011;18592;49.708;10.900;2022-07-09T05:06:24;3.15;;;1.70;;
21432;SDS011;18592;49.708;10.900;2022-07-09T05:08:29;1.60;;;1.50;;
21432;SDS011;18592;49.708;10.900;2022-07-09T05:10:30;2.13;;;1.45;;
21432;SDS011;18592;49.708;10.900;2022-07-09T05:12:32;2.08;;;1.50;;
21432;SDS011;18592;49.708;10.900;2022-07-09T05:14:34;1.65;;;1.40;;
21432;SDS011;18592;49.708;10.900;2022-07-09T05:16:36;3.70;;;1.58;;
21432;SDS011;18592;49.708;10.900;2022-07-09T05:18:38;4.35;;;1.65;;
21432;SDS011;18592;49.708;10.900;2022-07-09T05:20:40;3.25;;;1.75;;
21432;SDS011;18592;49.708;10.900;2022-07-09T05:22:43;2.40;;;1.65;;
21432;SDS011;18592;49.708;10.900;2022-07-09T05:24:45;2.08;;;1.55;;
21432;SDS011;18592;49.708;10.900;2022-07-09T05:26:49;2.00;;;1.40;;
21432;SDS011;18592;49.708;10.900;2022-07-09T05:28:51;4.40;;;1.77;;
21432;SDS011;18592;49.708;10.900;2022-07-09T05:30:53;3.70;;;1.70;;
21432;SDS011;18592;49.708;10.900;2022-07-09T05:33:15;2.70;;;1.75;;
21432;SDS011;18592;49.708;10.900;2022-07-09T05:35:17;3.47;;;1.52;;
21432;SDS011;18592;49.708;10.900;2022-07-09T05:37:19;2.35;;;1.30;;
21432;SDS011;18592;49.708;10.900;2022-07-09T05:39:24;1.75;;;1.65;;
21432;SDS011;18592;49.708;10.900;2022-07-09T05:41:26;2.72;;;1.60;;
21432;SDS011;18592;49.708;10.900;2022-07-09T05:43:28;3.20;;;1.73;;
21432;SDS011;18592;49.708;10.900;2022-07-09T05:45:30;3.72;;;2.05;;
21432;SDS011;18592;49.708;10.900;2022-07-09T05:47:31;2.03;;;1.40;;
21432;SDS011;18592;49.708;10.900;2022-07-09T05:49:33;2.35;;;1.50;;
21432;SDS011;18592;49.708;10.900;2022-07-09T05:51:35;1.45;;;1.20;;
21432;SDS011;18592;49.708;10.900;2022-07-09T05:53:38;3.33;;;1.50;;
21432;SDS011;18592;49.708;10.900;2022-07-09T05:55:40;4.25;;;1.60;;
21432;SDS011;18592;49.708;10.900;2022-07-09T05:57:41;2.40;;;1.42;;
21432;SDS011;18592;49.708;10.900;2022-07-09T05:59:43;3.22;;;1.40;;
21432;SDS011;18592;49.708;10.900;2022-07-09T06:01:45;2.55;;;1.52;;
21432;SDS011;18592;49.708;10.900;2022-07-09T06:03:47;2.00;;;1.40;;
21432;SDS011;18592;49.708;10.900;2022-07-09T06:05:49;2.30;;;1.50;;
21432;SDS011;18592;49.708;10.900;2022-07-09T06:07:50;3.40;;;1.65;;
21432;SDS011;18592;49.708;10.900;2022-07-09T06:09:52;3.53;;;1.50;;
21432;SDS011;18592;49.708;10.900;2022-07-09T06:11:54;2.15;;;1.50;;
21432;SDS011;18592;49.708;10.900;2022-07-09T06:13:55;1.92;;;1.27;;
21432;SDS011;18592;49.708;10.900;2022-07-09T06:15:57;2.83;;;1.52;;
21432;SDS011;18592;49.708;10.900;2022-07-09T06:17:59;2.22;;;1.27;;
21432;SDS011;18592;49.708;10.900;2022-07-09T06:20:01;3.05;;;1.48;;
21432;SDS011;18592;49.708;10.900;2022-07-09T06:22:03;2.13;;;1.55;;
21432;SDS011;18592;49.708;10.900;2022-07-09T06:24:07;2.15;;;1.70;;
21432;SDS011;18592;49.708;10.900;2022-07-09T06:26:09;3.50;;;1.70;;
21432;SDS011;18592;49.708;10.900;2022-07-09T06:28:11;2.78;;;1.55;;
21432;SDS011;18592;49.708;10.900;2022-07-09T06:30:13;4.53;;;1.50;;
21432;SDS011;18592;49.708;10.900;2022-07-09T06:32:14;3.33;;;1.35;;
21432;SDS011;18592;49.708;10.900;2022-07-09T06:34:16;2.97;;;1.58;;
21432;SDS011;18592;49.708;10.900;2022-07-09T06:36:17;2.85;;;1.50;;
21432;SDS011;18592;49.708;10.900;2022-07-09T06:38:19;2.17;;;1.35;;
21432;SDS011;18592;49.708;10.900;2022-07-09T06:40:24;2.45;;;1.42;;
21432;SDS011;18592;49.708;10.900;2022-07-09T06:42:25;1.92;;;1.45;;
21432;SDS011;18592;49.708;10.900;2022-07-09T06:44:41;3.78;;;1.55;;
21432;SDS011;18592;49.708;10.900;2022-07-09T06:46:43;2.20;;;1.25;;
21432;SDS011;18592;49.708;10.900;2022-07-09T06:48:45;1.60;;;1.20;;
21432;SDS011;18592;49.708;10.900;2022-07-09T06:50:47;2.97;;;1.50;;
21432;SDS011;18592;49.708;10.900;2022-07-09T06:52:48;2.25;;;1.30;;
21432;SDS011;18592;49.708;10.900;2022-07-09T06:54:51;4.07;;;1.50;;
21432;SDS011;18592;49.708;10.900;2022-07-09T06:56:52;2.50;;;1.35;;
21432;SDS011;18592;49.708;10.900;2022-07-09T06:58:54;2.00;;;1.15;;
21432;SDS011;18592;49.708;10.900;2022-07-09T07:00:55;2.42;;;1.10;;
21432;SDS011;18592;49.708;10.900;2022-07-09T07:02:57;2.92;;;1.40;;
21432;SDS011;18592;49.708;10.900;2022-07-09T07:05:01;3.63;;;1.40;;
21432;SDS011;18592;49.708;10.900;2022-07-09T07:07:02;4.18;;;1.25;;
21432;SDS011;18592;49.708;10.900;2022-07-09T07:09:05;3.75;;;1.38;;
21432;SDS011;18592;49.708;10.900;2022-07-09T07:11:07;3.10;;;1.42;;
21432;SDS011;18592;49.708;10.900;2022-07-09T07:13:09;1.38;;;1.17;;
21432;SDS011;18592;49.708;10.900;2022-07-09T07:15:12;2.08;;;1.20;;
21432;SDS011;18592;49.708;10.900;2022-07-09T07:17:13;3.15;;;1.27;;
21432;SDS011;18592;49.708;10.900;2022-07-09T07:19:15;3.83;;;1.20;;
21432;SDS011;18592;49.708;10.900;2022-07-09T07:21:18;3.47;;;1.20;;
21432;SDS011;18592;49.708;10.900;2022-07-09T07:23:20;4.10;;;1.38;;
21432;SDS011;18592;49.708;10.900;2022-07-09T07:25:21;1.98;;;1.08;;
21432;SDS011;18592;49.708;10.900;2022-07-09T07:27:23;2.72;;;1.15;;
21432;SDS011;18592;49.708;10.900;2022-07-09T07:29:28;2.53;;;1.10;;
21432;SDS011;18592;49.708;10.900;2022-07-09T07:31:29;1.92;;;1.20;;
21432;SDS011;18592;49.708;10.900;2022-07-09T07:33:31;2.67;;;1.25;;
21432;SDS011;18592;49.708;10.900;2022-07-09T07:35:33;4.68;;;1.35;;
21432;SDS011;18592;49.708;10.900;2022-07-09T07:37:34;1.63;;;1.00;;
21432;SDS011;18592;49.708;10.900;2022-07-09T07:39:36;1.67;;;1.15;;
21432;SDS011;18592;49.708;10.900;2022-07-09T07:41:37;2.03;;;1.30;;
21432;SDS011;18592;49.708;10.900;2022-07-09T07:43:39;2.05;;;1.23;;
21432;SDS011;18592;49.708;10.900;2022-07-09T07:45:41;2.33;;;1.20;;
21432;SDS011;18592;49.708;10.900;2022-07-09T07:47:43;2.40;;;1.33;;
21432;SDS011;18592;49.708;10.900;2022-07-09T07:49:45;2.05;;;1.10;;
21432;SDS011;18592;49.708;10.900;2022-07-09T07:51:47;1.98;;;1.05;;
21432;SDS011;18592;49.708;10.900;2022-07-09T07:53:48;1.50;;;1.15;;
21432;SDS011;18592;49.708;10.900;2022-07-09T07:55:50;2.80;;;1.55;;
21432;SDS011;18592;49.708;10.900;2022-07-09T07:57:52;2.58;;;1.30;;
21432;SDS011;18592;49.708;10.900;2022-07-09T07:59:53;1.75;;;1.13;;
21432;SDS011;18592;49.708;10.900;2022-07-09T08:01:55;3.13;;;1.42;;
21432;SDS011;18592;49.708;10.900;2022-07-09T08:03:57;2.22;;;1.35;;
21432;SDS011;18592;49.708;10.900;2022-07-09T08:05:58;1.95;;;1.10;;
21432;SDS011;18592;49.708;10.900;2022-07-09T08:08:01;4.20;;;1.30;;
21432;SDS011;18592;49.708;10.900;2022-07-09T08:10:03;4.72;;;1.38;;
21432;SDS011;18592;49.708;10.900;2022-07-09T08:12:06;3.05;;;1.40;;
21432;SDS011;18592;49.708;10.900;2022-07-09T08:14:09;1.55;;;1.25;;
21432;SDS011;18592;49.708;10.900;2022-07-09T08:16:11;2.17;;;1.10;;
21432;SDS011;18592;49.708;10.900;2022-07-09T08:18:13;2.08;;;1.27;;
21432;SDS011;18592;49.708;10.900;2022-07-09T08:20:16;1.35;;;1.20;;
21432;SDS011;18592;49.708;10.900;2022-07-09T08:22:18;2.22;;;1.10;;
21432;SDS011;18592;49.708;10.900;2022-07-09T08:24:19;1.75;;;0.95;;
21432;SDS011;18592;49.708;10.900;2022-07-09T08:26:21;1.30;;;1.10;;
21432;SDS011;18592;49.708;10.900;2022-07-09T08:28:26;1.70;;;1.13;;
21432;SDS011;18592;49.708;10.900;2022-07-09T08:30:28;1.90;;;1.10;;
21432;SDS011;18592;49.708;10.900;2022-07-09T08:32:30;1.60;;;1.10;;
21432;SDS011;18592;49.708;10.900;2022-07-09T08:34:32;1.25;;;1.00;;
21432;SDS011;18592;49.708;10.900;2022-07-09T08:36:34;2.72;;;1.20;;
21432;SDS011;18592;49.708;10.900;2022-07-09T08:38:35;2.17;;;1.20;;
21432;SDS011;18592;49.708;10.900;2022-07-09T08:40:38;1.38;;;1.10;;
21432;SDS011;18592;49.708;10.900;2022-07-09T08:42:41;1.70;;;1.00;;
21432;SDS011;18592;49.708;10.900;2022-07-09T08:44:43;1.40;;;1.30;;
21432;SDS011;18592;49.708;10.900;2022-07-09T08:46:48;2.03;;;1.30;;
21432;SDS011;18592;49.708;10.900;2022-07-09T08:48:50;1.23;;;0.90;;
21432;SDS011;18592;49.708;10.900;2022-07-09T08:50:53;0.98;;;0.85;;
21432;SDS011;18592;49.708;10.900;2022-07-09T08:52:56;4.07;;;1.10;;
21432;SDS011;18592;49.708;10.900;2022-07-09T08:55:01;2.30;;;1.10;;
21432;SDS011;18592;49.708;10.900;2022-07-09T08:57:04;2.25;;;1.10;;
21432;SDS011;18592;49.708;10.900;2022-07-09T08:59:06;3.38;;;1.10;;
21432;SDS011;18592;49.708;10.900;2022-07-09T09:01:12;2.15;;;0.88;;
21432;SDS011;18592;49.708;10.900;2022-07-09T09:03:17;2.60;;;1.08;;
21432;SDS011;18592;49.708;10.900;2022-07-09T09:05:19;2.72;;;1.10;;
21432;SDS011;18592;49.708;10.900;2022-07-09T09:07:21;1.10;;;1.00;;
21432;SDS011;18592;49.708;10.900;2022-07-09T09:09:23;1.38;;;1.25;;
21432;SDS011;18592;49.708;10.900;2022-07-09T09:11:25;2.83;;;1.25;;
21432;SDS011;18592;49.708;10.900;2022-07-09T09:13:28;1.90;;;0.90;;
21432;SDS011;18592;49.708;10.900;2022-07-09T09:15:30;1.30;;;1.02;;
21432;SDS011;18592;49.708;10.900;2022-07-09T09:17:31;1.77;;;1.00;;
21432;SDS011;18592;49.708;10.900;2022-07-09T09:19:33;1.80;;;1.13;;
21432;SDS011;18592;49.708;10.900;2022-07-09T09:21:36;0.95;;;0.85;;
21432;SDS011;18592;49.708;10.900;2022-07-09T09:25:50;1.83;;;1.20;;
21432;SDS011;18592;49.708;10.900;2022-07-09T09:27:56;2.58;;;1.00;;
21432;SDS011;18592;49.708;10.900;2022-07-09T09:29:59;1.30;;;1.13;;
21432;SDS011;18592;49.708;10.900;2022-07-09T09:32:08;1.88;;;0.88;;
21432;SDS011;18592;49.708;10.900;2022-07-09T09:34:12;2.53;;;1.10;;
21432;SDS011;18592;49.708;10.900;2022-07-09T09:38:42;0.80;;;0.80;;
21432;SDS011;18592;49.708;10.900;2022-07-09T09:40:44;1.20;;;1.00;;
21432;SDS011;18592;49.708;10.900;2022-07-09T09:42:47;1.35;;;1.17;;
21432;SDS011;18592;49.708;10.900;2022-07-09T09:44:56;1.10;;;1.00;;
21432;SDS011;18592;49.708;10.900;2022-07-09T09:47:01;1.20;;;0.85;;
21432;SDS011;18592;49.708;10.900;2022-07-09T09:49:05;1.60;;;1.00;;
21432;SDS011;18592;49.708;10.900;2022-07-09T09:51:09;1.92;;;0.95;;
21432;SDS011;18592;49.708;10.900;2022-07-09T09:53:14;1.00;;;1.00;;
21432;SDS011;18592;49.708;10.900;2022-07-09T09:55:17;2.45;;;0.90;;
21432;SDS011;18592;49.708;10.900;2022-07-09T09:57:20;1.67;;;1.05;;
21432;SDS011;18592;49.708;10.900;2022-07-09T09:59:25;1.75;;;1.00;;
21432;SDS011;18592;49.708;10.900;2022-07-09T10:01:27;1.30;;;1.00;;
21432;SDS011;18592;49.708;10.900;2022-07-09T10:03:30;2.05;;;1.08;;
21432;SDS011;18592;49.708;10.900;2022-07-09T10:05:40;1.00;;;0.90;;
21432;SDS011;18592;49.708;10.900;2022-07-09T10:07:42;2.30;;;1.08;;
21432;SDS011;18592;49.708;10.900;2022-07-09T10:09:52;1.10;;;1.00;;
21432;SDS011;18592;49.708;10.900;2022-07-09T10:11:55;2.30;;;1.23;;
21432;SDS011;18592;49.708;10.900;2022-07-09T10:13:57;1.83;;;1.20;;
21432;SDS011;18592;49.708;10.900;2022-07-09T10:15:58;2.08;;;1.10;;
21432;SDS011;18592;49.708;10.900;2022-07-09T10:18:09;1.13;;;0.93;;
21432;SDS011;18592;49.708;10.900;2022-07-09T10:20:12;2.13;;;1.20;;
21432;SDS011;18592;49.708;10.900;2022-07-09T10:22:13;2.38;;;1.20;;
21432;SDS011;18592;49.708;10.900;2022-07-09T10:24:22;1.50;;;1.10;;
21432;SDS011;18592;49.708;10.900;2022-07-09T10:26:35;1.45;;;1.08;;
21432;SDS011;18592;49.708;10.900;2022-07-09T10:28:40;1.33;;;1.10;;
21432;SDS011;18592;49.708;10.900;2022-07-09T10:30:41;1.25;;;1.00;;
21432;SDS011;18592;49.708;10.900;2022-07-09T10:32:44;2.75;;;1.10;;
21432;SDS011;18592;49.708;10.900;2022-07-09T10:35:04;2.15;;;1.30;;
21432;SDS011;18592;49.708;10.900;2022-07-09T10:37:07;1.23;;;1.10;;
21432;SDS011;18592;49.708;10.900;2022-07-09T10:39:11;1.10;;;1.00;;
21432;SDS011;18592;49.708;10.900;2022-07-09T10:41:20;2.28;;;1.20;;
21432;SDS011;18592;49.708;10.900;2022-07-09T10:43:37;1.95;;;1.30;;
21432;SDS011;18592;49.708;10.900;2022-07-09T10:45:45;1.80;;;1.17;;
21432;SDS011;18592;49.708;10.900;2022-07-09T10:47:56;1.20;;;1.10;;
21432;SDS011;18592;49.708;10.900;2022-07-09T10:50:02;1.95;;;1.27;;
21432;SDS011;18592;49.708;10.900;2022-07-09T10:52:06;1.60;;;1.30;;
21432;SDS011;18592;49.708;10.900;2022-07-09T10:54:17;1.38;;;1.13;;
21432;SDS011;18592;49.708;10.900;2022-07-09T10:56:20;2.38;;;1.23;;
21432;SDS011;18592;49.708;10.900;2022-07-09T10:58:23;1.98;;;1.30;;
21432;SDS011;18592;49.708;10.900;2022-07-09T11:00:31;1.33;;;1.17;;
21432;SDS011;18592;49.708;10.900;2022-07-09T11:02:33;2.28;;;1.10;;
21432;SDS011;18592;49.708;10.900;2022-07-09T11:04:36;1.65;;;1.10;;
21432;SDS011;18592;49.708;10.900;2022-07-09T11:06:44;1.65;;;1.30;;
21432;SDS011;18592;49.708;10.900;2022-07-09T11:08:47;1.13;;;1.02;;
21432;SDS011;18592;49.708;10.900;2022-07-09T11:10:49;1.88;;;1.02;;
21432;SDS011;18592;49.708;10.900;2022-07-09T11:12:51;1.33;;;1.20;;
21432;SDS011;18592;49.708;10.900;2022-07-09T11:14:53;1.38;;;1.20;;
21432;SDS011;18592;49.708;10.900;2022-07-09T11:16:56;2.17;;;1.30;;
21432;SDS011;18592;49.708;10.900;2022-07-09T11:19:00;2.17;;;1.20;;
21432;SDS011;18592;49.708;10.900;2022-07-09T11:21:13;1.83;;;1.10;;
21432;SDS011;18592;49.708;10.900;2022-07-09T11:23:23;1.50;;;1.15;;
21432;SDS011;18592;49.708;10.900;2022-07-09T11:25:27;1.77;;;1.30;;
21432;SDS011;18592;49.708;10.900;2022-07-09T11:27:29;1.60;;;1.10;;
21432;SDS011;18592;49.708;10.900;2022-07-09T11:29:31;1.38;;;1.10;;
21432;SDS011;18592;49.708;10.900;2022-07-09T11:31:33;2.63;;;1.05;;
21432;SDS011;18592;49.708;10.900;2022-07-09T11:33:36;1.20;;;1.10;;
21432;SDS011;18592;49.708;10.900;2022-07-09T11:35:57;1.40;;;1.23;;
21432;SDS011;18592;49.708;10.900;2022-07-09T11:38:02;1.27;;;1.10;;
21432;SDS011;18592;49.708;10.900;2022-07-09T11:40:05;1.60;;;1.20;;
21432;SDS011;18592;49.708;10.900;2022-07-09T11:42:07;1.75;;;1.20;;
21432;SDS011;18592;49.708;10.900;2022-07-09T11:44:19;2.72;;;1.30;;
21432;SDS011;18592;49.708;10.900;2022-07-09T11:46:30;2.33;;;1.10;;
21432;SDS011;18592;49.708;10.900;2022-07-09T11:48:32;1.60;;;1.30;;
21432;SDS011;18592;49.708;10.900;2022-07-09T11:50:41;2.40;;;1.40;;
21432;SDS011;18592;49.708;10.900;2022-07-09T11:52:49;2.30;;;1.13;;
21432;SDS011;18592;49.708;10.900;2022-07-09T11:57:03;2.13;;;1.10;;
21432;SDS011;18592;49.708;10.900;2022-07-09T11:59:27;1.30;;;1.20;;
21432;SDS011;18592;49.708;10.900;2022-07-09T12:01:32;1.77;;;1.15;;
21432;SDS011;18592;49.708;10.900;2022-07-09T12:03:34;2.03;;;1.50;;
21432;SDS011;18592;49.708;10.900;2022-07-09T12:05:44;1.98;;;1.50;;
21432;SDS011;18592;49.708;10.900;2022-07-09T12:07:52;2.33;;;1.58;;
21432;SDS011;18592;49.708;10.900;2022-07-09T12:09:57;2.83;;;1.45;;
21432;SDS011;18592;49.708;10.900;2022-07-09T12:12:09;2.38;;;1.55;;
21432;SDS011;18592;49.708;10.900;2022-07-09T12:14:11;1.58;;;1.42;;
21432;SDS011;18592;49.708;10.900;2022-07-09T12:16:14;2.40;;;1.65;;